sensor_id;sensor_type;location;lat;lon;timestamp;P1;durP1;ratioP1;P2;durP2;ratioP2
54167;SDS011;40072;50.958;3.592;2022-10-16T00:00:26;3.33;;;0.80;;
54167;SDS011;40072;50.958;3.592;2022-10-16T00:02:52;5.10;;;0.68;;
54167;SDS011;40072;50.958;3.592;2022-10-16T00:05:17;1.73;;;0.80;;
54167;SDS011;40072;50.958;3.592;2022-10-16T00:07:43;2.83;;;0.70;;
54167;SDS011;40072;50.958;3.592;2022-10-16T00:10:08;1.10;;;0.60;;
54167;SDS011;40072;50.958;3.592;2022-10-16T00:12:34;2.53;;;0.82;;
54167;SDS011;40072;50.958;3.592;2022-10-16T00:15:00;4.53;;;0.65;;
54167;SDS011;40072;50.958;3.592;2022-10-16T00:17:25;1.10;;;0.70;;
54167;SDS011;40072;50.958;3.592;2022-10-16T00:19:51;0.60;;;0.60;;
54167;SDS011;40072;50.958;3.592;2022-10-16T00:22:16;1.48;;;0.60;;
54167;SDS011;40072;50.958;3.592;2022-10-16T00:24:42;1.23;;;0.77;;
54167;SDS011;40072;50.958;3.592;2022-10-16T00:27:08;0.88;;;0.60;;
54167;SDS011;40072;50.958;3.592;2022-10-16T00:29:33;1.25;;;0.68;;
54167;SDS011;40072;50.958;3.592;2022-10-16T00:31:59;6.50;;;1.00;;
54167;SDS011;40072;50.958;3.592;2022-10-16T00:34:24;4.70;;;1.02;;
54167;SDS011;40072;50.958;3.592;2022-10-16T00:36:50;1.27;;;0.90;;
54167;SDS011;40072;50.958;3.592;2022-10-16T00:39:16;1.67;;;0.70;;
54167;SDS011;40072;50.958;3.592;2022-10-16T00:41:41;1.08;;;0.77;;
54167;SDS011;40072;50.958;3.592;2022-10-16T00:47:15;3.15;;;1.00;;
54167;SDS011;40072;50.958;3.592;2022-10-16T00:49:48;1.67;;;1.10;;
54167;SDS011;40072;50.958;3.592;2022-10-16T00:52:16;2.65;;;1.13;;
54167;SDS011;40072;50.958;3.592;2022-10-16T00:54:42;5.95;;;1.20;;
54167;SDS011;40072;50.958;3.592;2022-10-16T00:57:09;2.40;;;1.50;;
54167;SDS011;40072;50.958;3.592;2022-10-16T00:59:36;2.53;;;1.08;;
54167;SDS011;40072;50.958;3.592;2022-10-16T01:02:04;2.30;;;1.17;;
54167;SDS011;40072;50.958;3.592;2022-10-16T01:04:51;6.75;;;1.20;;
54167;SDS011;40072;50.958;3.592;2022-10-16T01:07:27;2.40;;;1.10;;
54167;SDS011;40072;50.958;3.592;2022-10-16T01:13:01;8.27;;;1.13;;
54167;SDS011;40072;50.958;3.592;2022-10-16T01:15:41;3.28;;;1.10;;
54167;SDS011;40072;50.958;3.592;2022-10-16T01:21:05;6.05;;;1.30;;
54167;SDS011;40072;50.958;3.592;2022-10-16T01:23:43;1.92;;;0.88;;
54167;SDS011;40072;50.958;3.592;2022-10-16T01:26:52;2.67;;;1.15;;
54167;SDS011;40072;50.958;3.592;2022-10-16T01:30:02;3.55;;;1.35;;
54167;SDS011;40072;50.958;3.592;2022-10-16T01:32:39;2.25;;;0.90;;
54167;SDS011;40072;50.958;3.592;2022-10-16T01:40:28;1.48;;;0.88;;
54167;SDS011;40072;50.958;3.592;2022-10-16T01:42:56;4.32;;;0.90;;
54167;SDS011;40072;50.958;3.592;2022-10-16T01:45:33;4.45;;;1.02;;
54167;SDS011;40072;50.958;3.592;2022-10-16T01:48:01;3.15;;;1.20;;
54167;SDS011;40072;50.958;3.592;2022-10-16T01:50:30;3.60;;;1.63;;
54167;SDS011;40072;50.958;3.592;2022-10-16T01:52:59;2.65;;;1.00;;
54167;SDS011;40072;50.958;3.592;2022-10-16T01:57:55;3.17;;;1.00;;
54167;SDS011;40072;50.958;3.592;2022-10-16T02:00:23;2.67;;;1.02;;
54167;SDS011;40072;50.958;3.592;2022-10-16T02:02:51;2.92;;;0.98;;
54167;SDS011;40072;50.958;3.592;2022-10-16T02:05:22;5.38;;;1.02;;
54167;SDS011;40072;50.958;3.592;2022-10-16T02:07:59;2.88;;;1.20;;
54167;SDS011;40072;50.958;3.592;2022-10-16T02:10:25;3.97;;;1.08;;
54167;SDS011;40072;50.958;3.592;2022-10-16T02:12:57;2.10;;;1.00;;
54167;SDS011;40072;50.958;3.592;2022-10-16T02:15:28;4.55;;;1.05;;
54167;SDS011;40072;50.958;3.592;2022-10-16T02:17:54;7.22;;;1.30;;
54167;SDS011;40072;50.958;3.592;2022-10-16T02:20:20;7.28;;;1.20;;
54167;SDS011;40072;50.958;3.592;2022-10-16T02:22:52;3.35;;;1.40;;
54167;SDS011;40072;50.958;3.592;2022-10-16T02:25:30;3.87;;;1.17;;
54167;SDS011;40072;50.958;3.592;2022-10-16T02:31:04;1.73;;;1.00;;
54167;SDS011;40072;50.958;3.592;2022-10-16T02:33:33;5.75;;;1.20;;
54167;SDS011;40072;50.958;3.592;2022-10-16T02:36:01;2.53;;;1.27;;
54167;SDS011;40072;50.958;3.592;2022-10-16T02:38:27;4.80;;;1.02;;
54167;SDS011;40072;50.958;3.592;2022-10-16T02:40:53;3.85;;;1.40;;
54167;SDS011;40072;50.958;3.592;2022-10-16T02:43:20;3.95;;;1.38;;
54167;SDS011;40072;50.958;3.592;2022-10-16T02:45:45;3.58;;;1.10;;
54167;SDS011;40072;50.958;3.592;2022-10-16T02:48:11;1.73;;;1.08;;
54167;SDS011;40072;50.958;3.592;2022-10-16T02:50:37;3.05;;;0.95;;
54167;SDS011;40072;50.958;3.592;2022-10-16T02:53:02;3.17;;;1.13;;
54167;SDS011;40072;50.958;3.592;2022-10-16T02:55:28;4.93;;;1.58;;
54167;SDS011;40072;50.958;3.592;2022-10-16T02:57:54;3.80;;;1.23;;
54167;SDS011;40072;50.958;3.592;2022-10-16T03:00:19;4.35;;;1.25;;
54167;SDS011;40072;50.958;3.592;2022-10-16T03:02:45;4.90;;;1.20;;
54167;SDS011;40072;50.958;3.592;2022-10-16T03:05:12;5.30;;;1.20;;
54167;SDS011;40072;50.958;3.592;2022-10-16T03:07:38;4.97;;;1.40;;
54167;SDS011;40072;50.958;3.592;2022-10-16T03:10:04;4.15;;;1.10;;
54167;SDS011;40072;50.958;3.592;2022-10-16T03:12:31;2.13;;;1.15;;
54167;SDS011;40072;50.958;3.592;2022-10-16T03:14:56;4.05;;;1.20;;
54167;SDS011;40072;50.958;3.592;2022-10-16T03:17:22;1.50;;;1.17;;
54167;SDS011;40072;50.958;3.592;2022-10-16T03:19:49;2.85;;;1.25;;
54167;SDS011;40072;50.958;3.592;2022-10-16T03:22:15;2.60;;;1.13;;
54167;SDS011;40072;50.958;3.592;2022-10-16T03:24:40;3.40;;;1.30;;
54167;SDS011;40072;50.958;3.592;2022-10-16T03:27:06;2.63;;;0.85;;
54167;SDS011;40072;50.958;3.592;2022-10-16T03:29:33;3.72;;;1.40;;
54167;SDS011;40072;50.958;3.592;2022-10-16T03:31:59;4.88;;;1.63;;
54167;SDS011;40072;50.958;3.592;2022-10-16T03:34:25;2.88;;;1.17;;
54167;SDS011;40072;50.958;3.592;2022-10-16T03:36:51;2.97;;;1.15;;
54167;SDS011;40072;50.958;3.592;2022-10-16T03:39:17;2.40;;;1.02;;
54167;SDS011;40072;50.958;3.592;2022-10-16T03:41:43;3.22;;;1.50;;
54167;SDS011;40072;50.958;3.592;2022-10-16T03:44:09;3.78;;;1.20;;
54167;SDS011;40072;50.958;3.592;2022-10-16T03:46:34;5.38;;;1.58;;
54167;SDS011;40072;50.958;3.592;2022-10-16T03:49:00;4.03;;;1.13;;
54167;SDS011;40072;50.958;3.592;2022-10-16T03:51:26;5.28;;;1.33;;
54167;SDS011;40072;50.958;3.592;2022-10-16T03:53:51;3.38;;;1.50;;
54167;SDS011;40072;50.958;3.592;2022-10-16T03:56:18;3.17;;;1.23;;
54167;SDS011;40072;50.958;3.592;2022-10-16T03:58:43;15.50;;;1.88;;
54167;SDS011;40072;50.958;3.592;2022-10-16T04:01:09;2.38;;;1.20;;
54167;SDS011;40072;50.958;3.592;2022-10-16T04:03:34;4.68;;;1.50;;
54167;SDS011;40072;50.958;3.592;2022-10-16T04:06:00;2.50;;;1.23;;
54167;SDS011;40072;50.958;3.592;2022-10-16T04:08:26;1.63;;;1.10;;
54167;SDS011;40072;50.958;3.592;2022-10-16T04:10:51;5.22;;;1.40;;
54167;SDS011;40072;50.958;3.592;2022-10-16T04:13:17;2.65;;;1.15;;
54167;SDS011;40072;50.958;3.592;2022-10-16T04:15:44;3.72;;;1.23;;
54167;SDS011;40072;50.958;3.592;2022-10-16T04:18:10;4.00;;;1.58;;
54167;SDS011;40072;50.958;3.592;2022-10-16T04:20:35;3.30;;;1.20;;
54167;SDS011;40072;50.958;3.592;2022-10-16T04:23:01;2.17;;;1.25;;
54167;SDS011;40072;50.958;3.592;2022-10-16T04:25:27;8.70;;;1.50;;
54167;SDS011;40072;50.958;3.592;2022-10-16T04:27:53;2.28;;;1.20;;
54167;SDS011;40072;50.958;3.592;2022-10-16T04:30:19;5.80;;;1.45;;
54167;SDS011;40072;50.958;3.592;2022-10-16T04:32:49;3.45;;;1.67;;
54167;SDS011;40072;50.958;3.592;2022-10-16T04:37:41;3.95;;;1.30;;
54167;SDS011;40072;50.958;3.592;2022-10-16T04:40:07;4.20;;;1.40;;
54167;SDS011;40072;50.958;3.592;2022-10-16T04:42:33;3.15;;;1.50;;
54167;SDS011;40072;50.958;3.592;2022-10-16T04:44:58;4.43;;;1.30;;
54167;SDS011;40072;50.958;3.592;2022-10-16T04:47:24;4.57;;;1.52;;
54167;SDS011;40072;50.958;3.592;2022-10-16T04:49:50;4.57;;;1.20;;
54167;SDS011;40072;50.958;3.592;2022-10-16T04:52:15;7.50;;;2.10;;
54167;SDS011;40072;50.958;3.592;2022-10-16T04:54:42;5.13;;;1.17;;
54167;SDS011;40072;50.958;3.592;2022-10-16T04:57:10;6.82;;;1.50;;
54167;SDS011;40072;50.958;3.592;2022-10-16T04:59:35;3.60;;;1.30;;
54167;SDS011;40072;50.958;3.592;2022-10-16T05:02:01;4.93;;;1.60;;
54167;SDS011;40072;50.958;3.592;2022-10-16T05:04:27;6.75;;;2.05;;
54167;SDS011;40072;50.958;3.592;2022-10-16T05:06:52;2.70;;;1.30;;
54167;SDS011;40072;50.958;3.592;2022-10-16T05:09:18;4.55;;;1.55;;
54167;SDS011;40072;50.958;3.592;2022-10-16T05:11:43;2.15;;;1.13;;
54167;SDS011;40072;50.958;3.592;2022-10-16T05:14:09;3.10;;;1.10;;
54167;SDS011;40072;50.958;3.592;2022-10-16T05:16:35;2.78;;;1.48;;
54167;SDS011;40072;50.958;3.592;2022-10-16T05:19:00;4.72;;;1.02;;
54167;SDS011;40072;50.958;3.592;2022-10-16T05:21:26;7.47;;;1.58;;
54167;SDS011;40072;50.958;3.592;2022-10-16T05:23:52;2.08;;;1.10;;
54167;SDS011;40072;50.958;3.592;2022-10-16T05:26:19;3.25;;;1.23;;
54167;SDS011;40072;50.958;3.592;2022-10-16T05:28:45;11.57;;;1.48;;
54167;SDS011;40072;50.958;3.592;2022-10-16T05:31:12;4.63;;;1.40;;
54167;SDS011;40072;50.958;3.592;2022-10-16T05:33:37;4.78;;;1.80;;
54167;SDS011;40072;50.958;3.592;2022-10-16T05:36:04;4.40;;;1.70;;
54167;SDS011;40072;50.958;3.592;2022-10-16T05:38:32;6.20;;;2.10;;
54167;SDS011;40072;50.958;3.592;2022-10-16T05:41:01;4.65;;;1.45;;
54167;SDS011;40072;50.958;3.592;2022-10-16T05:43:28;6.78;;;1.50;;
54167;SDS011;40072;50.958;3.592;2022-10-16T05:46:03;2.80;;;1.08;;
54167;SDS011;40072;50.958;3.592;2022-10-16T05:48:30;2.92;;;1.40;;
54167;SDS011;40072;50.958;3.592;2022-10-16T05:51:04;7.82;;;1.88;;
54167;SDS011;40072;50.958;3.592;2022-10-16T05:53:33;4.50;;;1.40;;
54167;SDS011;40072;50.958;3.592;2022-10-16T05:56:00;2.28;;;1.33;;
54167;SDS011;40072;50.958;3.592;2022-10-16T05:58:30;4.45;;;1.48;;
54167;SDS011;40072;50.958;3.592;2022-10-16T06:01:07;4.82;;;1.75;;
54167;SDS011;40072;50.958;3.592;2022-10-16T06:03:37;4.70;;;1.73;;
54167;SDS011;40072;50.958;3.592;2022-10-16T06:06:07;4.25;;;1.40;;
54167;SDS011;40072;50.958;3.592;2022-10-16T06:08:34;9.00;;;1.55;;
54167;SDS011;40072;50.958;3.592;2022-10-16T06:11:01;4.60;;;1.42;;
54167;SDS011;40072;50.958;3.592;2022-10-16T06:13:28;3.97;;;1.35;;
54167;SDS011;40072;50.958;3.592;2022-10-16T06:15:56;6.70;;;1.60;;
54167;SDS011;40072;50.958;3.592;2022-10-16T06:20:49;3.42;;;1.40;;
54167;SDS011;40072;50.958;3.592;2022-10-16T06:23:14;8.23;;;1.50;;
54167;SDS011;40072;50.958;3.592;2022-10-16T06:25:40;3.63;;;1.65;;
54167;SDS011;40072;50.958;3.592;2022-10-16T06:28:05;8.07;;;2.13;;
54167;SDS011;40072;50.958;3.592;2022-10-16T06:30:31;5.63;;;1.88;;
54167;SDS011;40072;50.958;3.592;2022-10-16T06:32:57;5.38;;;1.80;;
54167;SDS011;40072;50.958;3.592;2022-10-16T06:35:22;6.60;;;1.80;;
54167;SDS011;40072;50.958;3.592;2022-10-16T06:37:48;6.57;;;1.63;;
54167;SDS011;40072;50.958;3.592;2022-10-16T06:40:14;3.50;;;1.65;;
54167;SDS011;40072;50.958;3.592;2022-10-16T06:42:40;4.85;;;1.73;;
54167;SDS011;40072;50.958;3.592;2022-10-16T06:45:07;6.78;;;1.88;;
54167;SDS011;40072;50.958;3.592;2022-10-16T06:47:33;7.85;;;2.15;;
54167;SDS011;40072;50.958;3.592;2022-10-16T06:49:58;2.47;;;1.63;;
54167;SDS011;40072;50.958;3.592;2022-10-16T06:52:24;7.88;;;1.90;;
54167;SDS011;40072;50.958;3.592;2022-10-16T06:54:52;5.28;;;2.17;;
54167;SDS011;40072;50.958;3.592;2022-10-16T06:57:17;8.70;;;2.50;;
54167;SDS011;40072;50.958;3.592;2022-10-16T06:59:43;6.82;;;2.13;;
54167;SDS011;40072;50.958;3.592;2022-10-16T07:02:09;7.30;;;2.10;;
54167;SDS011;40072;50.958;3.592;2022-10-16T07:04:35;7.57;;;2.03;;
54167;SDS011;40072;50.958;3.592;2022-10-16T07:07:01;4.40;;;1.73;;
54167;SDS011;40072;50.958;3.592;2022-10-16T07:09:27;8.98;;;1.83;;
54167;SDS011;40072;50.958;3.592;2022-10-16T07:11:53;6.22;;;1.60;;
54167;SDS011;40072;50.958;3.592;2022-10-16T07:14:19;7.20;;;1.83;;
54167;SDS011;40072;50.958;3.592;2022-10-16T07:16:46;11.23;;;2.10;;
54167;SDS011;40072;50.958;3.592;2022-10-16T07:19:13;4.72;;;1.70;;
54167;SDS011;40072;50.958;3.592;2022-10-16T07:21:40;4.32;;;2.05;;
54167;SDS011;40072;50.958;3.592;2022-10-16T07:24:10;8.57;;;1.70;;
54167;SDS011;40072;50.958;3.592;2022-10-16T07:26:38;6.40;;;1.60;;
54167;SDS011;40072;50.958;3.592;2022-10-16T07:29:15;9.23;;;1.80;;
54167;SDS011;40072;50.958;3.592;2022-10-16T07:31:42;7.13;;;2.20;;
54167;SDS011;40072;50.958;3.592;2022-10-16T07:34:08;5.70;;;1.50;;
54167;SDS011;40072;50.958;3.592;2022-10-16T07:36:34;8.48;;;1.90;;
54167;SDS011;40072;50.958;3.592;2022-10-16T07:39:00;6.55;;;1.75;;
54167;SDS011;40072;50.958;3.592;2022-10-16T07:41:26;7.45;;;2.38;;
54167;SDS011;40072;50.958;3.592;2022-10-16T07:43:53;2.78;;;1.50;;
54167;SDS011;40072;50.958;3.592;2022-10-16T07:46:20;6.78;;;1.95;;
54167;SDS011;40072;50.958;3.592;2022-10-16T07:48:47;4.50;;;1.80;;
54167;SDS011;40072;50.958;3.592;2022-10-16T07:51:14;4.78;;;1.60;;
54167;SDS011;40072;50.958;3.592;2022-10-16T07:53:41;5.80;;;1.58;;
54167;SDS011;40072;50.958;3.592;2022-10-16T07:56:07;8.02;;;1.98;;
54167;SDS011;40072;50.958;3.592;2022-10-16T07:58:33;4.40;;;1.33;;
54167;SDS011;40072;50.958;3.592;2022-10-16T08:01:09;10.02;;;1.65;;
54167;SDS011;40072;50.958;3.592;2022-10-16T08:03:36;2.72;;;1.60;;
54167;SDS011;40072;50.958;3.592;2022-10-16T08:06:03;10.07;;;1.88;;
54167;SDS011;40072;50.958;3.592;2022-10-16T08:08:29;6.82;;;1.60;;
54167;SDS011;40072;50.958;3.592;2022-10-16T08:10:55;6.30;;;2.10;;
54167;SDS011;40072;50.958;3.592;2022-10-16T08:13:21;3.50;;;1.27;;
54167;SDS011;40072;50.958;3.592;2022-10-16T08:15:47;10.20;;;1.67;;
54167;SDS011;40072;50.958;3.592;2022-10-16T08:18:14;4.65;;;1.23;;
54167;SDS011;40072;50.958;3.592;2022-10-16T08:20:40;5.15;;;1.60;;
54167;SDS011;40072;50.958;3.592;2022-10-16T08:23:07;9.88;;;1.55;;
54167;SDS011;40072;50.958;3.592;2022-10-16T08:25:35;5.57;;;1.20;;
54167;SDS011;40072;50.958;3.592;2022-10-16T08:28:04;5.00;;;1.38;;
54167;SDS011;40072;50.958;3.592;2022-10-16T08:30:30;6.22;;;1.35;;
54167;SDS011;40072;50.958;3.592;2022-10-16T08:32:56;4.85;;;1.33;;
54167;SDS011;40072;50.958;3.592;2022-10-16T08:35:23;8.30;;;1.70;;
54167;SDS011;40072;50.958;3.592;2022-10-16T08:37:49;4.25;;;1.45;;
54167;SDS011;40072;50.958;3.592;2022-10-16T08:40:23;13.05;;;2.22;;
54167;SDS011;40072;50.958;3.592;2022-10-16T08:43:12;2.53;;;1.10;;
54167;SDS011;40072;50.958;3.592;2022-10-16T08:48:52;9.98;;;1.50;;
54167;SDS011;40072;50.958;3.592;2022-10-16T08:51:32;6.50;;;1.77;;
54167;SDS011;40072;50.958;3.592;2022-10-16T08:54:01;4.93;;;1.15;;
54167;SDS011;40072;50.958;3.592;2022-10-16T08:56:29;8.80;;;1.80;;
54167;SDS011;40072;50.958;3.592;2022-10-16T08:58:57;6.57;;;1.60;;
54167;SDS011;40072;50.958;3.592;2022-10-16T09:01:23;7.22;;;1.92;;
54167;SDS011;40072;50.958;3.592;2022-10-16T09:07:06;4.40;;;1.50;;
54167;SDS011;40072;50.958;3.592;2022-10-16T09:12:48;5.07;;;1.33;;
54167;SDS011;40072;50.958;3.592;2022-10-16T09:15:35;8.07;;;1.77;;
54167;SDS011;40072;50.958;3.592;2022-10-16T09:23:15;5.60;;;1.40;;
54167;SDS011;40072;50.958;3.592;2022-10-16T09:25:44;5.82;;;1.92;;
54167;SDS011;40072;50.958;3.592;2022-10-16T09:28:12;9.23;;;1.75;;
54167;SDS011;40072;50.958;3.592;2022-10-16T09:30:39;7.43;;;1.52;;
54167;SDS011;40072;50.958;3.592;2022-10-16T09:33:05;5.10;;;1.45;;
54167;SDS011;40072;50.958;3.592;2022-10-16T09:38:08;12.15;;;2.95;;
54167;SDS011;40072;50.958;3.592;2022-10-16T09:40:50;4.28;;;2.10;;
54167;SDS011;40072;50.958;3.592;2022-10-16T09:43:19;10.68;;;3.10;;
54167;SDS011;40072;50.958;3.592;2022-10-16T09:45:58;12.30;;;2.33;;
54167;SDS011;40072;50.958;3.592;2022-10-16T09:48:27;8.00;;;2.50;;
54167;SDS011;40072;50.958;3.592;2022-10-16T09:50:59;6.38;;;1.77;;
54167;SDS011;40072;50.958;3.592;2022-10-16T09:53:37;6.05;;;2.28;;
54167;SDS011;40072;50.958;3.592;2022-10-16T09:56:05;7.15;;;1.73;;
54167;SDS011;40072;50.958;3.592;2022-10-16T09:58:31;8.77;;;2.10;;
54167;SDS011;40072;50.958;3.592;2022-10-16T10:00:58;9.63;;;1.75;;
54167;SDS011;40072;50.958;3.592;2022-10-16T10:03:33;7.45;;;1.70;;
54167;SDS011;40072;50.958;3.592;2022-10-16T10:06:17;9.80;;;2.05;;
54167;SDS011;40072;50.958;3.592;2022-10-16T10:09:45;5.70;;;1.70;;
54167;SDS011;40072;50.958;3.592;2022-10-16T10:14:22;7.15;;;1.95;;
54167;SDS011;40072;50.958;3.592;2022-10-16T10:16:48;7.50;;;1.80;;
54167;SDS011;40072;50.958;3.592;2022-10-16T10:19:16;12.07;;;2.42;;
54167;SDS011;40072;50.958;3.592;2022-10-16T10:21:44;11.13;;;2.10;;
54167;SDS011;40072;50.958;3.592;2022-10-16T10:24:11;7.97;;;2.40;;
54167;SDS011;40072;50.958;3.592;2022-10-16T10:26:38;10.00;;;2.00;;
54167;SDS011;40072;50.958;3.592;2022-10-16T10:31:53;4.55;;;1.42;;
54167;SDS011;40072;50.958;3.592;2022-10-16T10:46:03;10.73;;;2.40;;
54167;SDS011;40072;50.958;3.592;2022-10-16T10:51:30;7.07;;;1.88;;
54167;SDS011;40072;50.958;3.592;2022-10-16T11:01:56;6.03;;;1.70;;
54167;SDS011;40072;50.958;3.592;2022-10-16T11:04:33;7.63;;;2.22;;
54167;SDS011;40072;50.958;3.592;2022-10-16T11:07:20;11.23;;;1.92;;
54167;SDS011;40072;50.958;3.592;2022-10-16T11:09:58;6.97;;;1.55;;
54167;SDS011;40072;50.958;3.592;2022-10-16T11:13:08;8.00;;;1.88;;
54167;SDS011;40072;50.958;3.592;2022-10-16T11:15:44;4.40;;;2.00;;
54167;SDS011;40072;50.958;3.592;2022-10-16T11:18:19;7.68;;;1.70;;
54167;SDS011;40072;50.958;3.592;2022-10-16T11:20:57;6.90;;;2.10;;
54167;SDS011;40072;50.958;3.592;2022-10-16T11:23:38;4.65;;;1.35;;
54167;SDS011;40072;50.958;3.592;2022-10-16T11:26:08;5.68;;;1.98;;
54167;SDS011;40072;50.958;3.592;2022-10-16T11:28:50;6.45;;;1.70;;
54167;SDS011;40072;50.958;3.592;2022-10-16T11:36:49;8.10;;;2.13;;
54167;SDS011;40072;50.958;3.592;2022-10-16T11:39:22;5.93;;;1.60;;
54167;SDS011;40072;50.958;3.592;2022-10-16T11:42:10;6.30;;;1.60;;
54167;SDS011;40072;50.958;3.592;2022-10-16T11:47:34;5.03;;;1.60;;
54167;SDS011;40072;50.958;3.592;2022-10-16T11:50:06;6.75;;;1.70;;
54167;SDS011;40072;50.958;3.592;2022-10-16T11:55:42;6.68;;;1.95;;
54167;SDS011;40072;50.958;3.592;2022-10-16T12:08:51;7.20;;;1.77;;
54167;SDS011;40072;50.958;3.592;2022-10-16T12:16:38;3.30;;;1.40;;
54167;SDS011;40072;50.958;3.592;2022-10-16T12:19:15;4.57;;;2.20;;
54167;SDS011;40072;50.958;3.592;2022-10-16T12:21:42;4.72;;;1.65;;
54167;SDS011;40072;50.958;3.592;2022-10-16T12:26:47;4.80;;;1.30;;
54167;SDS011;40072;50.958;3.592;2022-10-16T12:31:53;4.70;;;1.40;;
54167;SDS011;40072;50.958;3.592;2022-10-16T12:34:23;4.30;;;1.17;;
54167;SDS011;40072;50.958;3.592;2022-10-16T12:36:52;8.70;;;1.60;;
54167;SDS011;40072;50.958;3.592;2022-10-16T12:39:23;4.80;;;1.60;;
54167;SDS011;40072;50.958;3.592;2022-10-16T12:42:03;6.32;;;1.20;;
54167;SDS011;40072;50.958;3.592;2022-10-16T12:44:34;4.13;;;1.17;;
54167;SDS011;40072;50.958;3.592;2022-10-16T12:47:01;7.20;;;1.60;;
54167;SDS011;40072;50.958;3.592;2022-10-16T12:51:53;4.80;;;1.20;;
54167;SDS011;40072;50.958;3.592;2022-10-16T12:54:30;3.15;;;1.23;;
54167;SDS011;40072;50.958;3.592;2022-10-16T13:16:24;6.50;;;1.40;;
54167;SDS011;40072;50.958;3.592;2022-10-16T13:27:39;6.60;;;1.33;;
54167;SDS011;40072;50.958;3.592;2022-10-16T13:30:15;2.97;;;1.45;;
54167;SDS011;40072;50.958;3.592;2022-10-16T13:32:50;7.13;;;1.15;;
54167;SDS011;40072;50.958;3.592;2022-10-16T13:35:46;2.92;;;0.80;;
54167;SDS011;40072;50.958;3.592;2022-10-16T13:40:53;3.50;;;1.27;;
54167;SDS011;40072;50.958;3.592;2022-10-16T13:43:22;4.57;;;1.00;;
54167;SDS011;40072;50.958;3.592;2022-10-16T13:45:58;2.95;;;0.77;;
54167;SDS011;40072;50.958;3.592;2022-10-16T13:48:29;2.72;;;0.80;;
54167;SDS011;40072;50.958;3.592;2022-10-16T13:51:00;3.08;;;0.98;;
54167;SDS011;40072;50.958;3.592;2022-10-16T13:53:29;3.17;;;1.02;;
54167;SDS011;40072;50.958;3.592;2022-10-16T13:55:56;4.13;;;1.40;;
54167;SDS011;40072;50.958;3.592;2022-10-16T13:58:22;5.70;;;1.23;;
54167;SDS011;40072;50.958;3.592;2022-10-16T14:00:54;2.55;;;0.75;;
54167;SDS011;40072;50.958;3.592;2022-10-16T14:03:23;4.03;;;1.02;;
54167;SDS011;40072;50.958;3.592;2022-10-16T14:05:54;5.80;;;0.98;;
54167;SDS011;40072;50.958;3.592;2022-10-16T14:08:22;2.50;;;0.70;;
54167;SDS011;40072;50.958;3.592;2022-10-16T14:10:51;1.80;;;0.82;;
54167;SDS011;40072;50.958;3.592;2022-10-16T14:13:31;2.00;;;0.93;;
54167;SDS011;40072;50.958;3.592;2022-10-16T14:16:28;5.00;;;1.15;;
54167;SDS011;40072;50.958;3.592;2022-10-16T14:21:28;3.53;;;1.00;;
54167;SDS011;40072;50.958;3.592;2022-10-16T14:23:55;2.50;;;0.80;;
54167;SDS011;40072;50.958;3.592;2022-10-16T14:26:26;3.28;;;1.00;;
54167;SDS011;40072;50.958;3.592;2022-10-16T14:29:12;2.65;;;1.13;;
54167;SDS011;40072;50.958;3.592;2022-10-16T14:31:39;2.13;;;1.23;;
54167;SDS011;40072;50.958;3.592;2022-10-16T14:34:52;5.20;;;1.00;;
54167;SDS011;40072;50.958;3.592;2022-10-16T14:36:58;4.57;;;1.10;;
54167;SDS011;40072;50.958;3.592;2022-10-16T14:39:33;3.83;;;0.90;;
54167;SDS011;40072;50.958;3.592;2022-10-16T14:42:00;4.28;;;1.45;;
54167;SDS011;40072;50.958;3.592;2022-10-16T14:44:31;3.38;;;1.33;;
54167;SDS011;40072;50.958;3.592;2022-10-16T14:46:58;3.20;;;1.15;;
54167;SDS011;40072;50.958;3.592;2022-10-16T14:49:32;3.05;;;1.33;;
54167;SDS011;40072;50.958;3.592;2022-10-16T14:51:58;6.15;;;1.65;;
54167;SDS011;40072;50.958;3.592;2022-10-16T14:54:23;4.68;;;1.23;;
54167;SDS011;40072;50.958;3.592;2022-10-16T14:56:53;4.65;;;1.25;;
54167;SDS011;40072;50.958;3.592;2022-10-16T14:59:38;4.60;;;1.08;;
54167;SDS011;40072;50.958;3.592;2022-10-16T15:02:13;5.68;;;1.20;;
54167;SDS011;40072;50.958;3.592;2022-10-16T15:04:42;5.25;;;1.73;;
54167;SDS011;40072;50.958;3.592;2022-10-16T15:07:08;3.28;;;1.38;;
54167;SDS011;40072;50.958;3.592;2022-10-16T15:09:33;4.40;;;1.17;;
54167;SDS011;40072;50.958;3.592;2022-10-16T15:11:59;5.15;;;1.42;;
54167;SDS011;40072;50.958;3.592;2022-10-16T15:14:25;2.88;;;1.08;;
54167;SDS011;40072;50.958;3.592;2022-10-16T15:16:50;6.93;;;1.42;;
54167;SDS011;40072;50.958;3.592;2022-10-16T15:19:16;3.83;;;1.10;;
54167;SDS011;40072;50.958;3.592;2022-10-16T15:21:41;3.50;;;1.23;;
54167;SDS011;40072;50.958;3.592;2022-10-16T15:24:09;6.30;;;1.38;;
54167;SDS011;40072;50.958;3.592;2022-10-16T15:26:37;3.65;;;1.23;;
54167;SDS011;40072;50.958;3.592;2022-10-16T15:29:04;3.10;;;1.00;;
54167;SDS011;40072;50.958;3.592;2022-10-16T15:31:29;2.45;;;1.20;;
54167;SDS011;40072;50.958;3.592;2022-10-16T15:33:56;6.00;;;1.27;;
54167;SDS011;40072;50.958;3.592;2022-10-16T15:36:36;3.70;;;1.25;;
54167;SDS011;40072;50.958;3.592;2022-10-16T15:39:03;3.88;;;1.58;;
54167;SDS011;40072;50.958;3.592;2022-10-16T15:41:31;4.60;;;1.15;;
54167;SDS011;40072;50.958;3.592;2022-10-16T15:43:56;8.05;;;1.25;;
54167;SDS011;40072;50.958;3.592;2022-10-16T15:46:23;4.95;;;1.30;;
54167;SDS011;40072;50.958;3.592;2022-10-16T15:48:49;4.53;;;1.60;;
54167;SDS011;40072;50.958;3.592;2022-10-16T15:51:20;6.13;;;2.88;;
54167;SDS011;40072;50.958;3.592;2022-10-16T15:53:46;6.78;;;3.10;;
54167;SDS011;40072;50.958;3.592;2022-10-16T15:56:12;20.58;;;13.52;;
54167;SDS011;40072;50.958;3.592;2022-10-16T15:58:38;31.50;;;18.83;;
54167;SDS011;40072;50.958;3.592;2022-10-16T16:01:04;32.38;;;19.13;;
54167;SDS011;40072;50.958;3.592;2022-10-16T16:03:31;18.83;;;10.93;;
54167;SDS011;40072;50.958;3.592;2022-10-16T16:05:57;30.75;;;17.73;;
54167;SDS011;40072;50.958;3.592;2022-10-16T16:08:28;76.57;;;29.23;;
54167;SDS011;40072;50.958;3.592;2022-10-16T16:10:57;125.30;;;48.20;;
54167;SDS011;40072;50.958;3.592;2022-10-16T16:13:24;67.20;;;28.13;;
54167;SDS011;40072;50.958;3.592;2022-10-16T16:15:49;119.95;;;46.03;;
54167;SDS011;40072;50.958;3.592;2022-10-16T16:18:15;27.25;;;13.35;;
54167;SDS011;40072;50.958;3.592;2022-10-16T16:20:40;37.80;;;19.88;;
54167;SDS011;40072;50.958;3.592;2022-10-16T16:23:06;38.47;;;22.23;;
54167;SDS011;40072;50.958;3.592;2022-10-16T16:25:32;51.72;;;28.85;;
54167;SDS011;40072;50.958;3.592;2022-10-16T16:27:57;23.25;;;11.52;;
54167;SDS011;40072;50.958;3.592;2022-10-16T16:30:23;8.63;;;4.97;;
54167;SDS011;40072;50.958;3.592;2022-10-16T16:32:48;8.13;;;2.05;;
54167;SDS011;40072;50.958;3.592;2022-10-16T16:35:14;4.82;;;2.15;;
54167;SDS011;40072;50.958;3.592;2022-10-16T16:37:40;18.73;;;11.80;;
54167;SDS011;40072;50.958;3.592;2022-10-16T16:40:05;14.57;;;8.93;;
54167;SDS011;40072;50.958;3.592;2022-10-16T16:42:31;7.20;;;3.38;;
54167;SDS011;40072;50.958;3.592;2022-10-16T16:44:57;6.68;;;3.25;;
54167;SDS011;40072;50.958;3.592;2022-10-16T16:47:22;8.60;;;5.05;;
54167;SDS011;40072;50.958;3.592;2022-10-16T16:49:48;6.97;;;4.47;;
54167;SDS011;40072;50.958;3.592;2022-10-16T16:52:14;8.68;;;6.38;;
54167;SDS011;40072;50.958;3.592;2022-10-16T16:54:40;6.50;;;4.55;;
54167;SDS011;40072;50.958;3.592;2022-10-16T16:57:06;7.38;;;4.00;;
54167;SDS011;40072;50.958;3.592;2022-10-16T16:59:31;6.80;;;3.03;;
54167;SDS011;40072;50.958;3.592;2022-10-16T17:01:58;4.72;;;2.38;;
54167;SDS011;40072;50.958;3.592;2022-10-16T17:04:24;4.68;;;2.30;;
54167;SDS011;40072;50.958;3.592;2022-10-16T17:06:51;11.40;;;3.55;;
54167;SDS011;40072;50.958;3.592;2022-10-16T17:09:20;10.05;;;4.50;;
54167;SDS011;40072;50.958;3.592;2022-10-16T17:11:46;9.23;;;3.67;;
54167;SDS011;40072;50.958;3.592;2022-10-16T17:14:13;7.05;;;4.13;;